Sunday, December 16, 2018, 10:28 AM GMT
Back to Local

CYOW, Ottawa Int'L. Ont.

Location: , , Canada Lat: 45.317
Local Time: 10:28 AM GMT (10:28 GMT) Lon: -75.667
Time Zone: GMT Elev: 380 ft

Show me the last for .
Show Coded

Time T Td Feel RH Dir Speed Gust Alt SLP Vis Weather Sky Remarks
2018-12-16 10:00 27 25 17 92 40° 10 - 30.20 30.22 15 SCT240 None
2018-12-16 09:00 23 21 14 92 40° 8 - 30.21 30.23 15 FEW240 None
2018-12-16 08:00 25 23 16 92 40° 8 - 30.22 30.24 15 SCT240 None
2018-12-16 07:00 25 23 15 92 40° 9 - 30.22 30.24 15 SCT240 None
2018-12-16 06:00 27 25 19 92 40° 7 - 30.23 30.25 15 SCT240 SCT280 None
2018-12-16 05:00 27 25 20 92 50° 6 - 30.26 30.28 15 BKN280 None
2018-12-16 04:00 28 27 22 92 50° 6 - 30.28 30.30 15 BKN280 None
2018-12-16 03:00 28 27 20 92 40° 8 - 30.27 30.29 15 BKN280 None
2018-12-16 02:00 30 28 23 92 30° 7 - 30.29 30.31 15 BKN280 None
2018-12-16 01:00 28 28 21 100 20° 7 - 30.28 30.30 15 BKN280 None
2018-12-16 00:00 30 28 - 92 Variable 2 - 30.29 30.31 15 FEW028 BKN280 None
2018-12-15 23:00 34 30 30 86 290° 5 - 30.28 30.30 15 SCT028 BKN280 None
2018-12-15 22:00 34 30 - 86 Variable 2 - 30.26 30.28 15 SCT030 BKN280 None
2018-12-15 21:00 36 30 - 80 - Calm - 30.26 30.28 15 FEW040 BKN280 None
2018-12-15 20:00 37 30 35 74 230° 3 - 30.25 30.27 15 FEW020 BKN280 None
2018-12-15 19:00 37 32 35 80 290° 3 - 30.24 30.26 15 FEW020 BKN280 None
2018-12-15 18:00 37 30 35 74 300° 3 - 30.23 30.25 15 FEW010 BKN280 None
2018-12-15 17:00 37 30 - 74 290° 2 - 30.23 30.25 15 FEW010 BKN280 None
2018-12-15 16:00 36 30 30 80 300° 7 - 30.23 30.25 10 FEW010 OVC280 None
2018-12-15 15:00 36 32 29 86 280° 9 - 30.24 30.26 10 BKN280 None
2018-12-15 14:00 34 30 28 86 250° 7 - 30.22 30.24 10 BKN240 None
2018-12-15 13:00 34 30 29 86 260° 6 - 30.22 30.24 10 SCT030 BKN240 None
2018-12-15 12:00 34 32 27 93 250° 8 - 30.21 30.23 15 OVC030 None
2018-12-15 11:00 34 32 27 93 240° 8 - 30.19 30.21 15 OVC024 None

Support USWX by starting your Amazon purchase here.